createdAt,value
2019-05-28T00:01:44.653Z,27.10
2019-05-28T00:04:12.564Z,27.10
2019-05-28T00:06:40.536Z,27.13
2019-05-28T00:09:08.985Z,27.11
2019-05-28T00:11:36.808Z,27.10
2019-05-28T00:14:23.751Z,27.10
2019-05-28T00:16:51.549Z,27.13
2019-05-28T00:19:19.380Z,27.11
2019-05-28T00:21:47.220Z,27.12
2019-05-28T00:24:15.011Z,27.10
2019-05-28T00:26:42.923Z,27.11
2019-05-28T00:29:11.097Z,27.09
2019-05-28T00:31:39.047Z,27.08
2019-05-28T00:34:06.867Z,27.11
2019-05-28T00:36:34.705Z,27.09
2019-05-28T00:39:02.607Z,27.10
2019-05-28T00:41:30.472Z,27.06
2019-05-28T00:44:17.350Z,27.10
2019-05-28T00:46:45.216Z,27.09
2019-05-28T00:49:13.168Z,27.06
2019-05-28T00:51:41.090Z,27.09
2019-05-28T00:54:09.224Z,27.09
2019-05-28T00:56:37.178Z,27.14
2019-05-28T01:01:52.273Z,27.05
2019-05-28T01:04:20.489Z,27.12
2019-05-28T01:06:48.460Z,27.10
2019-05-28T01:09:16.320Z,27.04
2019-05-28T01:11:44.154Z,27.03
2019-05-28T01:16:45.641Z,27.02
2019-05-28T01:21:46.995Z,27.00
2019-05-28T01:24:14.983Z,27.01
2019-05-28T01:27:02.022Z,27.01
2019-05-28T01:29:29.848Z,27.06
2019-05-28T01:31:57.766Z,27.02
2019-05-28T01:37:00.178Z,26.99
2019-05-28T01:39:28.049Z,27.03
2019-05-28T01:41:55.897Z,27.02
2019-05-28T01:44:23.750Z,27.00
2019-05-28T01:46:51.543Z,27.02
2019-05-28T01:49:19.457Z,27.00
2019-05-28T01:51:47.480Z,27.01
2019-05-28T01:54:15.352Z,26.96
2019-05-28T01:56:43.263Z,26.98
2019-05-28T01:59:11.183Z,26.95
2019-05-28T02:01:39.085Z,27.01
2019-05-28T02:04:06.961Z,26.96
2019-05-28T02:06:34.830Z,26.97
2019-05-28T02:09:02.928Z,26.95
2019-05-28T02:11:30.791Z,27.02
2019-05-28T02:13:58.670Z,26.98
2019-05-28T02:16:26.573Z,27.00
2019-05-28T02:18:54.546Z,26.95
2019-05-28T02:23:56.004Z,26.97
2019-05-28T02:26:23.784Z,26.94
2019-05-28T02:28:51.620Z,26.95
2019-05-28T02:31:27.729Z,26.95
2019-05-28T02:33:49.556Z,26.95
2019-05-28T02:36:17.328Z,26.94
2019-05-28T02:38:45.124Z,26.94
2019-05-28T02:41:12.893Z,26.92
2019-05-28T02:43:40.748Z,26.95
2019-05-28T02:46:08.663Z,26.91
2019-05-28T02:48:36.537Z,26.91
2019-05-28T02:51:05.214Z,26.91
2019-05-28T02:53:33.216Z,26.89
2019-05-28T02:56:01.205Z,26.91
2019-05-28T03:01:23.870Z,26.91
2019-05-28T03:03:52.212Z,26.90
2019-05-28T03:06:20.192Z,26.92
2019-05-28T03:08:48.254Z,26.92
2019-05-28T03:11:16.024Z,26.89
2019-05-28T03:13:43.916Z,26.90
2019-05-28T03:16:11.740Z,26.89
2019-05-28T03:18:39.874Z,26.87
2019-05-28T03:21:07.960Z,26.85
2019-05-28T03:23:36.034Z,26.86
2019-05-28T03:26:03.997Z,26.83
2019-05-28T03:28:31.831Z,26.90
2019-05-28T03:30:59.656Z,26.91
2019-05-28T03:33:27.525Z,26.91
2019-05-28T03:38:49.912Z,26.87
2019-05-28T03:41:17.729Z,26.83
2019-05-28T03:43:45.527Z,26.84
2019-05-28T03:46:13.318Z,26.84
2019-05-28T03:48:41.208Z,26.88
2019-05-28T03:51:09.423Z,26.86
2019-05-28T03:53:37.239Z,26.85
2019-05-28T03:56:05.080Z,26.85
2019-05-28T03:58:32.924Z,26.83
2019-05-28T04:01:19.777Z,26.85
2019-05-28T04:03:47.653Z,26.86
2019-05-28T04:06:15.539Z,26.91
2019-05-28T04:08:43.458Z,26.89
2019-05-28T04:11:11.714Z,26.87
2019-05-28T04:13:58.575Z,26.91
2019-05-28T04:16:26.793Z,26.86
2019-05-28T04:18:54.678Z,26.84
2019-05-28T04:21:22.548Z,26.86
2019-05-28T04:23:51.078Z,26.89
2019-05-28T04:26:19.085Z,26.85
2019-05-28T04:28:46.897Z,26.81
2019-05-28T04:31:14.748Z,26.81
2019-05-28T04:33:42.644Z,26.81
2019-05-28T04:36:10.533Z,26.83
2019-05-28T04:38:38.376Z,26.78
2019-05-28T04:41:06.162Z,26.78
2019-05-28T04:43:34.001Z,26.79
2019-05-28T04:46:02.033Z,26.80
2019-05-28T04:48:31.636Z,26.76
2019-05-28T04:50:59.501Z,26.76
2019-05-28T04:53:27.409Z,26.76
2019-05-28T04:55:55.363Z,26.76
2019-05-28T04:58:23.224Z,26.76
2019-05-28T05:00:51.064Z,26.75
2019-05-28T05:08:39.400Z,26.77
2019-05-28T05:11:07.332Z,26.77
2019-05-28T05:13:35.226Z,26.73
2019-05-28T05:16:03.136Z,26.73
2019-05-28T05:18:31.260Z,26.70
2019-05-28T05:20:59.220Z,26.71
2019-05-28T05:23:27.468Z,26.73
2019-05-28T05:25:55.588Z,26.73
2019-05-28T05:31:20.832Z,26.75
2019-05-28T05:33:49.132Z,26.75
2019-05-28T05:36:17.120Z,26.74
2019-05-28T05:38:45.117Z,26.79
2019-05-28T05:41:32.135Z,26.75
2019-05-28T05:44:00.483Z,26.76
2019-05-28T05:46:28.397Z,26.77
2019-05-28T05:48:56.604Z,26.75
2019-05-28T05:51:25.173Z,26.74
2019-05-28T05:53:53.100Z,26.73
2019-05-28T05:58:54.433Z,26.71
2019-05-28T06:01:22.197Z,26.73
2019-05-28T06:03:50.091Z,26.71
2019-05-28T06:06:17.890Z,26.71
2019-05-28T06:08:45.996Z,26.70
2019-05-28T06:11:13.797Z,26.72
2019-05-28T06:13:41.544Z,26.71
2019-05-28T06:16:09.313Z,26.68
2019-05-28T06:18:37.195Z,26.68
2019-05-28T06:21:13.653Z,26.69
2019-05-28T06:23:34.468Z,26.67
2019-05-28T06:26:02.220Z,26.67
2019-05-28T06:28:30.367Z,26.67
2019-05-28T06:30:58.113Z,26.66
2019-05-28T06:33:25.932Z,26.67
2019-05-28T06:35:53.761Z,26.67
2019-05-28T06:38:21.532Z,26.68
2019-05-28T06:40:49.292Z,26.69
2019-05-28T06:43:17.055Z,26.67
2019-05-28T06:45:44.816Z,26.69
2019-05-28T06:48:12.664Z,26.68
2019-05-28T06:50:40.412Z,26.68
2019-05-28T06:53:08.273Z,26.67
2019-05-28T06:55:36.029Z,26.67
2019-05-28T06:58:03.785Z,26.71
2019-05-28T07:00:31.537Z,26.69
2019-05-28T07:02:59.300Z,26.68
2019-05-28T07:05:27.342Z,26.68
2019-05-28T07:07:55.117Z,26.69
2019-05-28T07:10:22.904Z,26.67
2019-05-28T07:12:50.679Z,26.78
2019-05-28T07:15:18.440Z,26.72
2019-05-28T07:17:46.213Z,26.72
2019-05-28T07:20:14.020Z,26.75
2019-05-28T07:22:41.791Z,26.73
2019-05-28T07:25:10.158Z,26.75
2019-05-28T07:27:37.927Z,26.72
2019-05-28T07:30:05.708Z,26.73
2019-05-28T07:32:33.479Z,26.72
2019-05-28T07:35:01.387Z,26.74
2019-05-28T07:37:29.188Z,26.74
2019-05-28T07:39:56.943Z,26.75
2019-05-28T07:42:32.610Z,26.74
2019-05-28T07:44:54.256Z,26.73
2019-05-28T07:47:22.023Z,26.79
2019-05-28T07:49:49.844Z,26.80
2019-05-28T07:52:17.597Z,26.83
2019-05-28T07:54:45.344Z,26.86
2019-05-28T07:57:13.105Z,26.85
2019-05-28T07:59:40.896Z,26.85
2019-05-28T08:02:08.724Z,26.83
2019-05-28T08:04:46.687Z,26.87
2019-05-28T08:07:05.975Z,26.87
2019-05-28T08:09:33.728Z,26.89
2019-05-28T08:12:01.557Z,26.92
2019-05-28T08:14:29.328Z,26.88
2019-05-28T08:16:57.172Z,26.90
2019-05-28T08:19:25.012Z,26.86
2019-05-28T08:21:52.780Z,26.89
2019-05-28T08:24:23.017Z,26.90
2019-05-28T08:26:50.192Z,26.88
2019-05-28T08:29:18.228Z,26.88
2019-05-28T08:31:46.006Z,26.89
2019-05-28T08:34:14.043Z,26.91
2019-05-28T08:36:41.853Z,26.89
2019-05-28T08:39:09.696Z,26.89
2019-05-28T08:41:37.784Z,26.92
2019-05-28T08:44:05.544Z,26.92
2019-05-28T08:46:33.356Z,26.93
2019-05-28T08:49:01.250Z,26.92
2019-05-28T08:51:29.427Z,26.94
2019-05-28T08:53:57.363Z,26.90
2019-05-28T08:56:25.297Z,26.93
2019-05-28T08:58:53.293Z,26.94
2019-05-28T09:01:21.149Z,26.94
2019-05-28T09:03:49.088Z,26.95
2019-05-28T09:06:16.880Z,26.95
2019-05-28T09:08:44.774Z,26.93
2019-05-28T09:11:13.008Z,26.97
2019-05-28T09:13:41.224Z,26.99
2019-05-28T09:16:09.548Z,26.98
2019-05-28T09:18:37.301Z,26.95
2019-05-28T09:21:05.270Z,26.97
2019-05-28T09:23:33.171Z,26.96
2019-05-28T09:26:00.937Z,26.97
2019-05-28T09:28:30.948Z,26.97
2019-05-28T09:30:58.212Z,26.97
2019-05-28T09:33:25.960Z,26.99
2019-05-28T09:36:07.236Z,26.96
2019-05-28T09:38:23.745Z,26.95
2019-05-28T09:40:51.556Z,26.94
2019-05-28T09:43:19.345Z,26.95
2019-05-28T09:45:47.199Z,26.93
2019-05-28T09:48:15.016Z,26.96
2019-05-28T09:50:42.784Z,27.00
2019-05-28T09:53:10.532Z,27.00
2019-05-28T09:55:38.294Z,26.98
2019-05-28T09:58:06.142Z,26.95
2019-05-28T10:00:36.620Z,27.01
2019-05-28T10:03:04.884Z,26.99
2019-05-28T10:05:32.730Z,26.95
2019-05-28T10:08:00.890Z,27.00
2019-05-28T10:10:28.644Z,27.02
2019-05-28T10:12:56.447Z,27.06
2019-05-28T10:15:24.256Z,27.08
2019-05-28T10:17:52.004Z,27.03
2019-05-28T10:20:21.504Z,27.07
2019-05-28T10:22:49.972Z,27.06
2019-05-28T10:25:17.760Z,27.04
2019-05-28T10:28:00.262Z,27.04
2019-05-28T10:30:14.988Z,27.02
2019-05-28T10:32:43.072Z,27.02
2019-05-28T10:35:10.933Z,27.03
2019-05-28T10:37:38.721Z,27.03
2019-05-28T10:40:06.754Z,27.02
2019-05-28T10:42:34.533Z,27.07
2019-05-28T10:45:02.302Z,27.07
2019-05-28T10:47:30.275Z,27.06
2019-05-28T10:49:58.084Z,27.07
2019-05-28T10:52:25.863Z,27.06
2019-05-28T10:54:53.685Z,27.07
2019-05-28T10:57:21.520Z,27.05
2019-05-28T10:59:49.281Z,27.04
2019-05-28T11:02:17.044Z,27.07
2019-05-28T11:04:44.997Z,27.09
2019-05-28T11:07:13.265Z,27.09
2019-05-28T11:09:41.046Z,27.13
2019-05-28T11:12:08.925Z,27.12
2019-05-28T11:14:36.710Z,27.16
2019-05-28T11:17:04.461Z,27.13
2019-05-28T11:19:32.224Z,27.14
2019-05-28T11:21:59.993Z,27.14
2019-05-28T11:24:27.784Z,27.14
2019-05-28T11:26:55.538Z,27.14
2019-05-28T11:29:23.292Z,27.15
2019-05-28T11:31:51.336Z,27.14
2019-05-28T11:34:19.101Z,27.19
2019-05-28T11:36:46.850Z,27.19
2019-05-28T11:39:14.737Z,27.18
2019-05-28T11:41:43.300Z,27.15
2019-05-28T11:44:11.229Z,27.16
2019-05-28T11:46:39.389Z,27.19
2019-05-28T11:49:07.640Z,27.19
2019-05-28T11:51:35.392Z,27.18
2019-05-28T11:54:03.543Z,27.18
2019-05-28T11:56:31.288Z,27.18
2019-05-28T11:58:59.060Z,27.24
2019-05-28T12:01:34.210Z,27.23
2019-05-28T12:03:56.404Z,27.18
2019-05-28T12:06:24.425Z,27.22
2019-05-28T12:09:11.460Z,27.22
2019-05-28T12:11:39.742Z,27.22
2019-05-28T12:14:07.584Z,27.24
2019-05-28T12:16:54.406Z,27.21
2019-05-28T12:19:22.206Z,27.22
2019-05-28T12:21:50.064Z,27.21
2019-05-28T12:24:17.866Z,27.21
2019-05-28T12:26:45.808Z,27.20
2019-05-28T12:29:15.703Z,27.20
2019-05-28T12:31:43.451Z,27.22
2019-05-28T12:34:11.217Z,27.18
2019-05-28T12:36:39.298Z,27.19
2019-05-28T12:39:08.367Z,27.20
2019-05-28T12:41:36.173Z,27.21
2019-05-28T12:44:04.338Z,27.19
2019-05-28T12:46:32.357Z,27.24
2019-05-28T12:49:00.533Z,27.20
2019-05-28T12:51:28.603Z,27.22
2019-05-28T12:53:56.430Z,27.24
2019-05-28T12:56:24.355Z,27.24
2019-05-28T12:58:52.609Z,27.21
2019-05-28T13:01:20.694Z,27.21
2019-05-28T13:03:51.863Z,27.22
2019-05-28T13:06:18.143Z,26.32
2019-05-28T13:08:45.957Z,27.22
2019-05-28T13:11:13.902Z,27.24
2019-05-28T13:13:41.674Z,27.24
2019-05-28T13:16:09.488Z,26.73
2019-05-28T13:18:37.261Z,27.22
2019-05-28T13:23:52.265Z,27.20
2019-05-28T13:26:20.016Z,27.25
2019-05-28T13:28:47.786Z,27.22
2019-05-28T13:31:15.558Z,27.24
2019-05-28T13:33:43.335Z,27.30
2019-05-28T13:36:11.374Z,27.27
2019-05-28T13:38:42.532Z,27.29
2019-05-28T13:41:08.957Z,27.33
2019-05-28T13:43:36.737Z,27.33
2019-05-28T13:46:04.503Z,27.30
2019-05-28T13:48:32.248Z,27.32
2019-05-28T13:51:00.057Z,27.28
2019-05-28T13:53:28.097Z,27.24
2019-05-28T13:55:55.852Z,27.27
2019-05-28T13:58:23.607Z,27.27
2019-05-28T14:00:51.527Z,27.28
2019-05-28T14:03:19.328Z,27.25
2019-05-28T14:05:47.135Z,27.23
2019-05-28T14:08:15.192Z,27.21
2019-05-28T14:10:42.986Z,27.21
2019-05-28T14:13:29.948Z,27.20
2019-05-28T14:15:57.786Z,27.19
2019-05-28T14:18:25.912Z,27.22
2019-05-28T14:21:12.739Z,27.19
2019-05-28T14:23:40.564Z,27.20
2019-05-28T14:26:08.654Z,27.20
2019-05-28T14:28:36.486Z,27.18
2019-05-28T14:31:04.509Z,27.17
2019-05-28T14:33:51.477Z,27.16
2019-05-28T14:39:07.368Z,27.16
2019-05-28T14:41:35.156Z,27.15
2019-05-28T14:44:02.937Z,27.12
2019-05-28T14:46:30.770Z,27.15
2019-05-28T14:48:58.556Z,27.13
2019-05-28T14:51:26.404Z,27.15
2019-05-28T14:56:28.577Z,27.13
2019-05-28T14:58:56.358Z,27.12
2019-05-28T15:01:24.123Z,27.06
2019-05-28T15:03:51.876Z,27.11
2019-05-28T15:06:20.204Z,27.09
2019-05-28T15:08:47.972Z,27.08
2019-05-28T15:13:49.233Z,27.10
2019-05-28T15:19:09.295Z,27.09
2019-05-28T15:21:37.509Z,27.08
2019-05-28T15:24:09.562Z,27.08
2019-05-28T15:26:37.685Z,27.08
2019-05-28T15:29:05.836Z,27.09
2019-05-28T15:31:34.347Z,27.08
2019-05-28T15:34:06.106Z,27.10
2019-05-28T15:36:34.327Z,27.12
2019-05-28T15:39:03.042Z,27.10
2019-05-28T15:41:31.381Z,27.09
2019-05-28T15:44:01.072Z,27.09
2019-05-28T15:46:29.270Z,27.09
2019-05-28T15:48:57.450Z,27.09
2019-05-28T15:51:28.612Z,27.09
2019-05-28T15:53:57.337Z,27.09
2019-05-28T15:56:25.867Z,27.10
2019-05-28T15:58:54.394Z,27.07
2019-05-28T16:01:27.471Z,27.10
2019-05-28T16:03:56.027Z,27.08
2019-05-28T16:06:26.202Z,27.10
2019-05-28T16:08:59.394Z,24.73
2019-05-28T16:11:27.692Z,27.09
2019-05-28T16:14:22.095Z,27.06
2019-05-28T16:19:18.782Z,26.94
2019-05-28T16:24:33.696Z,26.98
2019-05-28T16:27:01.835Z,27.00
2019-05-28T16:29:29.615Z,27.02
2019-05-28T16:31:57.865Z,27.01
2019-05-28T16:34:26.190Z,27.04
2019-05-28T16:37:13.289Z,27.02
2019-05-28T16:39:41.260Z,27.01
2019-05-28T16:42:09.340Z,27.04
2019-05-28T16:44:37.184Z,27.04
2019-05-28T16:49:38.501Z,27.05
2019-05-28T16:54:40.536Z,27.01
2019-05-28T16:57:08.333Z,27.05
2019-05-28T16:59:36.357Z,27.02
2019-05-28T17:02:23.493Z,27.02
2019-05-28T17:04:51.409Z,27.03
2019-05-28T17:07:19.383Z,27.02
2019-05-28T17:09:47.269Z,27.07
2019-05-28T17:12:15.302Z,27.05
2019-05-28T17:14:43.286Z,27.02
2019-05-28T17:17:11.404Z,27.05
2019-05-28T17:19:39.604Z,27.02
2019-05-28T17:22:07.947Z,27.04
2019-05-28T17:24:35.854Z,27.02
2019-05-28T17:27:03.932Z,27.01
2019-05-28T17:29:31.889Z,27.00
2019-05-28T17:31:59.734Z,26.98
2019-05-28T17:34:27.707Z,26.98
2019-05-28T17:37:14.806Z,26.97
2019-05-28T17:39:43.066Z,26.98
2019-05-28T17:42:11.061Z,26.97
2019-05-28T17:47:25.956Z,26.94
2019-05-28T17:49:53.893Z,26.96
2019-05-28T17:52:21.847Z,26.95
2019-05-28T17:54:49.613Z,26.96
2019-05-28T17:59:51.698Z,26.94
2019-05-28T18:05:11.573Z,26.92
2019-05-28T18:07:39.588Z,26.92
2019-05-28T18:10:07.637Z,26.70
2019-05-28T18:12:35.549Z,26.07
2019-05-28T18:15:03.421Z,25.60
2019-05-28T18:17:31.376Z,25.54
2019-05-28T18:19:59.269Z,25.02
2019-05-28T18:22:27.691Z,25.17
2019-05-28T18:24:56.128Z,25.20
2019-05-28T18:27:42.944Z,24.95
2019-05-28T18:32:44.670Z,25.54
2019-05-28T18:35:12.646Z,25.77
2019-05-28T18:37:40.588Z,25.88
2019-05-28T18:43:02.553Z,26.02
2019-05-28T18:45:30.513Z,26.03
2019-05-28T18:47:58.293Z,26.06
2019-05-28T18:50:26.082Z,26.12
2019-05-28T18:52:53.966Z,26.16
2019-05-28T18:55:23.592Z,26.22
2019-05-28T18:57:51.722Z,26.25
2019-05-28T19:00:19.750Z,26.26
2019-05-28T19:02:47.740Z,26.27
2019-05-28T19:05:15.716Z,26.28
2019-05-28T19:07:43.614Z,26.29
2019-05-28T19:10:11.587Z,26.30
2019-05-28T19:12:39.352Z,26.37
2019-05-28T19:15:07.255Z,26.37
2019-05-28T19:17:35.247Z,26.34
2019-05-28T19:20:03.243Z,26.32
2019-05-28T19:22:31.399Z,26.33
2019-05-28T19:24:59.258Z,26.33
2019-05-28T19:27:27.087Z,26.34
2019-05-28T19:29:55.075Z,26.33
2019-05-28T19:32:23.145Z,26.33
2019-05-28T19:34:51.035Z,26.33
2019-05-28T19:37:18.935Z,26.33
2019-05-28T19:39:46.933Z,26.34
2019-05-28T19:45:01.634Z,26.36
2019-05-28T19:47:29.938Z,26.36
2019-05-28T19:49:59.396Z,26.36
2019-05-28T19:55:14.244Z,26.36
2019-05-28T20:00:35.137Z,26.36
2019-05-28T20:03:03.006Z,26.37
2019-05-28T20:05:31.030Z,26.35
2019-05-28T20:07:59.092Z,26.34
2019-05-28T20:10:27.090Z,26.37
2019-05-28T20:12:55.169Z,26.37
2019-05-28T20:15:24.482Z,26.36
2019-05-28T20:17:52.942Z,26.37
2019-05-28T20:20:21.031Z,26.35
2019-05-28T20:22:50.110Z,26.34
2019-05-28T20:25:18.979Z,26.35
2019-05-28T20:27:47.577Z,26.33
2019-05-28T20:30:16.641Z,26.33
2019-05-28T20:32:44.805Z,26.33
2019-05-28T20:35:33.449Z,26.33
2019-05-28T20:38:05.571Z,26.32
2019-05-28T20:43:04.790Z,26.32
2019-05-28T20:45:32.831Z,26.31
2019-05-28T20:48:01.027Z,26.29
2019-05-28T20:50:28.854Z,26.32
2019-05-28T20:52:56.904Z,26.29
2019-05-28T20:55:24.884Z,26.29
2019-05-28T20:57:53.353Z,26.27
2019-05-28T21:03:09.881Z,26.32
2019-05-28T21:05:37.911Z,26.33
2019-05-28T21:08:25.227Z,26.34
2019-05-28T21:11:12.406Z,26.37
2019-05-28T21:13:40.762Z,26.33
2019-05-28T21:16:08.814Z,26.37
2019-05-28T21:18:36.820Z,26.34
2019-05-28T21:21:04.939Z,26.37
2019-05-28T21:23:32.852Z,26.35
2019-05-28T21:26:20.031Z,26.36
2019-05-28T21:28:48.060Z,26.35
2019-05-28T21:31:16.036Z,26.34
2019-05-28T21:36:17.336Z,26.31
2019-05-28T21:38:45.287Z,26.33
2019-05-28T21:41:13.405Z,26.32
2019-05-28T21:43:41.481Z,26.29
2019-05-28T21:48:48.667Z,26.31
2019-05-28T21:51:16.802Z,26.26
2019-05-28T21:53:44.906Z,26.26
2019-05-28T21:56:31.914Z,26.33
2019-05-28T21:59:00.056Z,26.28
2019-05-28T22:01:47.288Z,26.29
2019-05-28T22:04:15.448Z,26.29
2019-05-28T22:06:43.588Z,26.26
2019-05-28T22:09:11.606Z,26.28
2019-05-28T22:11:39.586Z,26.29
2019-05-28T22:14:08.587Z,26.26
2019-05-28T22:16:37.545Z,26.25
2019-05-28T22:19:05.568Z,26.24
2019-05-28T22:21:33.812Z,26.25
2019-05-28T22:24:20.920Z,26.24
2019-05-28T22:26:49.060Z,26.24
2019-05-28T22:29:17.327Z,26.23
2019-05-28T22:31:45.419Z,26.24
2019-05-28T22:37:00.563Z,26.25
2019-05-28T22:39:29.721Z,26.23
2019-05-28T22:41:59.617Z,26.27
2019-05-28T22:47:03.157Z,26.25
2019-05-28T22:49:34.905Z,26.24
2019-05-28T22:52:03.919Z,26.25
2019-05-28T22:54:32.735Z,26.25
2019-05-28T22:59:47.995Z,26.26
2019-05-28T23:02:15.926Z,26.25
2019-05-28T23:04:44.028Z,26.24
2019-05-28T23:07:12.037Z,26.25
2019-05-28T23:09:40.159Z,26.21
2019-05-28T23:12:08.212Z,26.22
2019-05-28T23:14:36.380Z,26.22
2019-05-28T23:17:04.548Z,26.20
2019-05-28T23:19:32.500Z,26.21
2019-05-28T23:24:34.268Z,26.18
2019-05-28T23:27:03.471Z,26.13
2019-05-28T23:29:32.176Z,26.13
2019-05-28T23:32:00.380Z,26.14
2019-05-28T23:34:28.342Z,26.11
2019-05-28T23:39:43.441Z,26.10
2019-05-28T23:42:11.600Z,26.12
2019-05-28T23:44:39.727Z,26.13
2019-05-28T23:47:08.032Z,26.10
2019-05-28T23:49:37.624Z,26.09
2019-05-28T23:52:24.550Z,26.12
2019-05-28T23:55:11.905Z,26.10
2019-05-28T23:57:40.398Z,26.08
